sensor_id;sensor_type;location;lat;lon;timestamp;pressure;altitude;pressure_sealevel;temperature;humidity
30714;BME280;17465;47.934;33.430;2023-12-07T00:02:13;57447.99;;;-140.43;98.12
30714;BME280;17465;47.934;33.430;2023-12-07T00:04:47;57399.27;;;-140.43;97.89
30714;BME280;17465;47.934;33.430;2023-12-07T00:07:19;57407.74;;;-140.43;98.03
30714;BME280;17465;47.934;33.430;2023-12-07T00:09:51;57407.74;;;-140.43;98.03
30714;BME280;17465;47.934;33.430;2023-12-07T00:12:21;57413.04;;;-140.43;97.08
30714;BME280;17465;47.934;33.430;2023-12-07T00:14:52;57404.57;;;-140.43;98.25
30714;BME280;17465;47.934;33.430;2023-12-07T00:17:24;57411.98;;;-140.43;97.54
30714;BME280;17465;47.934;33.430;2023-12-07T00:20:00;57371.73;;;-140.43;96.72
30714;BME280;17465;47.934;33.430;2023-12-07T00:22:27;57404.57;;;-140.43;97.05
30714;BME280;17465;47.934;33.430;2023-12-07T00:25:00;57409.86;;;-140.43;97.54
30714;BME280;17465;47.934;33.430;2023-12-07T00:27:30;57433.16;;;-140.43;98.10
30714;BME280;17465;47.934;33.430;2023-12-07T00:30:00;57413.04;;;-140.43;97.60
30714;BME280;17465;47.934;33.430;2023-12-07T00:32:32;57413.04;;;-140.43;97.60
30714;BME280;17465;47.934;33.430;2023-12-07T00:35:03;57435.28;;;-140.43;98.16
30714;BME280;17465;47.934;33.430;2023-12-07T00:37:34;57402.45;;;-140.43;98.48
30714;BME280;17465;47.934;33.430;2023-12-07T00:40:14;57420.45;;;-140.43;97.90
30714;BME280;17465;47.934;33.430;2023-12-07T00:42:41;57420.45;;;-140.43;97.90
30714;BME280;17465;47.934;33.430;2023-12-07T00:45:12;57404.57;;;-140.43;99.01
30714;BME280;17465;47.934;33.430;2023-12-07T00:47:43;57437.39;;;-140.43;98.88
30714;BME280;17465;47.934;33.430;2023-12-07T00:50:14;57437.39;;;-140.43;98.88
30714;BME280;17465;47.934;33.430;2023-12-07T00:52:45;57418.33;;;-140.43;98.67
30714;BME280;17465;47.934;33.430;2023-12-07T00:55:15;57385.50;;;-140.43;99.37
30714;BME280;17465;47.934;33.430;2023-12-07T00:57:45;57422.57;;;-140.43;99.09
30714;BME280;17465;47.934;33.430;2023-12-07T01:00:16;57414.10;;;-140.43;99.78
30714;BME280;17465;47.934;33.430;2023-12-07T01:02:46;57390.80;;;-140.43;99.99
30714;BME280;17465;47.934;33.430;2023-12-07T01:05:19;57390.80;;;-140.43;99.99
30714;BME280;17465;47.934;33.430;2023-12-07T01:07:50;57387.62;;;-140.43;99.31
30714;BME280;17465;47.934;33.430;2023-12-07T01:10:22;57399.27;;;-140.43;99.45
30714;BME280;17465;47.934;33.430;2023-12-07T01:12:52;57399.27;;;-140.43;99.45
30714;BME280;17465;47.934;33.430;2023-12-07T01:15:24;57422.57;;;-140.43;99.56
30714;BME280;17465;47.934;33.430;2023-12-07T01:17:54;57422.57;;;-140.43;99.56
30714;BME280;17465;47.934;33.430;2023-12-07T01:20:24;57405.62;;;-140.43;100.00
30714;BME280;17465;47.934;33.430;2023-12-07T01:22:55;57443.75;;;-140.43;100.00
30714;BME280;17465;47.934;33.430;2023-12-07T01:25:25;57416.21;;;-140.43;100.00
30714;BME280;17465;47.934;33.430;2023-12-07T01:27:55;57407.74;;;-140.43;100.00
30714;BME280;17465;47.934;33.430;2023-12-07T01:30:26;57417.27;;;-140.43;100.00
30714;BME280;17465;47.934;33.430;2023-12-07T01:32:57;57413.04;;;-140.43;100.00
30714;BME280;17465;47.934;33.430;2023-12-07T01:35:27;57400.33;;;-140.43;100.00
30714;BME280;17465;47.934;33.430;2023-12-07T01:37:57;57400.33;;;-140.43;100.00
30714;BME280;17465;47.934;33.430;2023-12-07T01:40:28;57415.16;;;-140.43;100.00
30714;BME280;17465;47.934;33.430;2023-12-07T01:42:58;57411.98;;;-140.43;100.00
30714;BME280;17465;47.934;33.430;2023-12-07T01:45:32;57411.98;;;-140.43;100.00
30714;BME280;17465;47.934;33.430;2023-12-07T01:48:02;57433.16;;;-140.43;100.00
30714;BME280;17465;47.934;33.430;2023-12-07T01:50:34;57406.68;;;-140.43;100.00
30714;BME280;17465;47.934;33.430;2023-12-07T01:53:05;57421.51;;;-140.43;100.00
30714;BME280;17465;47.934;33.430;2023-12-07T01:55:37;57421.51;;;-140.43;100.00
30714;BME280;17465;47.934;33.430;2023-12-07T01:58:09;57415.16;;;-140.43;100.00
30714;BME280;17465;47.934;33.430;2023-12-07T02:00:40;57415.16;;;-140.43;100.00
30714;BME280;17465;47.934;33.430;2023-12-07T02:03:11;57425.75;;;-140.43;100.00
30714;BME280;17465;47.934;33.430;2023-12-07T02:05:43;57406.68;;;-140.43;100.00
30714;BME280;17465;47.934;33.430;2023-12-07T02:08:14;57388.68;;;-140.43;100.00
30714;BME280;17465;47.934;33.430;2023-12-07T02:10:45;57416.21;;;-140.43;100.00
30714;BME280;17465;47.934;33.430;2023-12-07T02:13:17;57403.51;;;-140.43;100.00
30714;BME280;17465;47.934;33.430;2023-12-07T02:15:48;57403.51;;;-140.43;100.00
30714;BME280;17465;47.934;33.430;2023-12-07T02:21:34;57406.68;;;-140.43;100.00
30714;BME280;17465;47.934;33.430;2023-12-07T02:26:55;57438.46;;;-140.43;100.00
30714;BME280;17465;47.934;33.430;2023-12-07T02:29:26;57429.98;;;-140.43;100.00
30714;BME280;17465;47.934;33.430;2023-12-07T02:31:56;57419.39;;;-140.43;100.00
30714;BME280;17465;47.934;33.430;2023-12-07T02:34:29;57408.80;;;-140.43;100.00
30714;BME280;17465;47.934;33.430;2023-12-07T02:37:04;57411.98;;;-140.43;100.00
30714;BME280;17465;47.934;33.430;2023-12-07T02:39:35;57405.62;;;-140.43;100.00
30714;BME280;17465;47.934;33.430;2023-12-07T02:42:06;57433.16;;;-140.43;100.00
30714;BME280;17465;47.934;33.430;2023-12-07T02:44:38;57424.69;;;-140.43;100.00
30714;BME280;17465;47.934;33.430;2023-12-07T02:47:09;57424.69;;;-140.43;100.00
30714;BME280;17465;47.934;33.430;2023-12-07T02:49:39;57403.51;;;-140.43;100.00
30714;BME280;17465;47.934;33.430;2023-12-07T02:52:09;57397.15;;;-140.43;100.00
30714;BME280;17465;47.934;33.430;2023-12-07T02:54:40;57421.51;;;-140.43;100.00
30714;BME280;17465;47.934;33.430;2023-12-07T02:57:10;57420.45;;;-140.43;100.00
30714;BME280;17465;47.934;33.430;2023-12-07T02:59:41;57398.21;;;-140.43;100.00
30714;BME280;17465;47.934;33.430;2023-12-07T03:02:11;57427.87;;;-140.43;100.00
30714;BME280;17465;47.934;33.430;2023-12-07T03:04:41;57429.98;;;-140.43;100.00
30714;BME280;17465;47.934;33.430;2023-12-07T03:07:12;57452.23;;;-140.43;100.00
30714;BME280;17465;47.934;33.430;2023-12-07T03:09:42;57414.10;;;-140.43;100.00
30714;BME280;17465;47.934;33.430;2023-12-07T03:12:12;57409.86;;;-140.43;100.00
30714;BME280;17465;47.934;33.430;2023-12-07T03:14:49;57409.86;;;-140.43;100.00
30714;BME280;17465;47.934;33.430;2023-12-07T03:17:15;57413.04;;;-140.43;100.00
30714;BME280;17465;47.934;33.430;2023-12-07T03:19:46;57379.15;;;-140.43;100.00
30714;BME280;17465;47.934;33.430;2023-12-07T03:22:17;57403.51;;;-140.43;100.00
30714;BME280;17465;47.934;33.430;2023-12-07T03:24:50;57418.33;;;-140.43;100.00
30714;BME280;17465;47.934;33.430;2023-12-07T03:27:20;57427.87;;;-140.43;100.00
30714;BME280;17465;47.934;33.430;2023-12-07T03:29:51;57434.22;;;-140.43;99.73
30714;BME280;17465;47.934;33.430;2023-12-07T03:32:21;57434.22;;;-140.43;99.73
30714;BME280;17465;47.934;33.430;2023-12-07T03:34:52;57435.28;;;-140.43;98.96
30714;BME280;17465;47.934;33.430;2023-12-07T03:37:23;57402.45;;;-140.43;98.49
30714;BME280;17465;47.934;33.430;2023-12-07T03:39:54;57421.51;;;-140.43;98.06
30714;BME280;17465;47.934;33.430;2023-12-07T03:42:24;57432.10;;;-140.43;97.98
30714;BME280;17465;47.934;33.430;2023-12-07T03:44:56;57432.10;;;-140.43;97.98
30714;BME280;17465;47.934;33.430;2023-12-07T03:47:28;57414.10;;;-140.43;96.75
30714;BME280;17465;47.934;33.430;2023-12-07T03:49:59;57434.22;;;-140.43;95.90
30714;BME280;17465;47.934;33.430;2023-12-07T03:52:29;57426.80;;;-140.43;95.31
30714;BME280;17465;47.934;33.430;2023-12-07T03:55:00;57383.38;;;-140.43;95.73
30714;BME280;17465;47.934;33.430;2023-12-07T03:57:36;57383.38;;;-140.43;95.73
30714;BME280;17465;47.934;33.430;2023-12-07T04:00:03;57419.39;;;-140.43;95.04
30714;BME280;17465;47.934;33.430;2023-12-07T04:02:33;57419.39;;;-140.43;95.04
30714;BME280;17465;47.934;33.430;2023-12-07T04:05:05;57414.10;;;-140.43;94.84
30714;BME280;17465;47.934;33.430;2023-12-07T04:07:35;57414.10;;;-140.43;94.84
30714;BME280;17465;47.934;33.430;2023-12-07T04:10:06;57422.57;;;-140.43;94.55
30714;BME280;17465;47.934;33.430;2023-12-07T04:12:36;57422.57;;;-140.43;94.55
30714;BME280;17465;47.934;33.430;2023-12-07T04:15:13;57433.16;;;-140.43;93.95
30714;BME280;17465;47.934;33.430;2023-12-07T04:17:46;57431.04;;;-140.43;94.00
30714;BME280;17465;47.934;33.430;2023-12-07T04:20:16;57424.69;;;-140.43;94.39
30714;BME280;17465;47.934;33.430;2023-12-07T04:22:46;57424.69;;;-140.43;94.39
30714;BME280;17465;47.934;33.430;2023-12-07T04:25:16;57456.46;;;-140.43;94.52
30714;BME280;17465;47.934;33.430;2023-12-07T04:27:47;57456.46;;;-140.43;94.52
30714;BME280;17465;47.934;33.430;2023-12-07T04:30:17;57399.27;;;-140.43;93.77
30714;BME280;17465;47.934;33.430;2023-12-07T04:32:47;57402.45;;;-140.43;94.16
30714;BME280;17465;47.934;33.430;2023-12-07T04:35:23;57425.75;;;-140.43;94.12
30714;BME280;17465;47.934;33.430;2023-12-07T04:37:49;57437.39;;;-140.43;94.02
30714;BME280;17465;47.934;33.430;2023-12-07T04:40:23;57437.39;;;-140.43;94.02
30714;BME280;17465;47.934;33.430;2023-12-07T04:42:54;57407.74;;;-140.43;93.82
30714;BME280;17465;47.934;33.430;2023-12-07T04:45:24;57407.74;;;-140.43;93.55
30714;BME280;17465;47.934;33.430;2023-12-07T04:47:55;57423.63;;;-140.43;93.78
30714;BME280;17465;47.934;33.430;2023-12-07T04:50:25;57423.63;;;-140.43;93.78
30714;BME280;17465;47.934;33.430;2023-12-07T04:53:04;57410.92;;;-140.43;93.90
30714;BME280;17465;47.934;33.430;2023-12-07T04:55:35;57410.92;;;-140.43;93.90
30714;BME280;17465;47.934;33.430;2023-12-07T04:58:05;57413.04;;;-140.43;93.64
30714;BME280;17465;47.934;33.430;2023-12-07T05:00:35;57420.45;;;-140.43;94.06
30714;BME280;17465;47.934;33.430;2023-12-07T05:03:06;57421.51;;;-140.43;93.98
30714;BME280;17465;47.934;33.430;2023-12-07T05:05:39;57421.51;;;-140.43;93.98
30714;BME280;17465;47.934;33.430;2023-12-07T05:08:09;57405.62;;;-140.43;93.97
30714;BME280;17465;47.934;33.430;2023-12-07T05:10:40;57420.45;;;-140.43;94.63
30714;BME280;17465;47.934;33.430;2023-12-07T05:13:10;57436.34;;;-140.43;94.44
30714;BME280;17465;47.934;33.430;2023-12-07T05:15:40;57419.39;;;-140.43;94.12
30714;BME280;17465;47.934;33.430;2023-12-07T05:18:11;57419.39;;;-140.43;94.12
30714;BME280;17465;47.934;33.430;2023-12-07T05:20:41;57402.45;;;-140.43;94.38
30714;BME280;17465;47.934;33.430;2023-12-07T05:23:12;57427.87;;;-140.43;94.18
30714;BME280;17465;47.934;33.430;2023-12-07T05:25:42;57431.04;;;-140.43;94.22
30714;BME280;17465;47.934;33.430;2023-12-07T05:28:13;57422.57;;;-140.43;94.23
30714;BME280;17465;47.934;33.430;2023-12-07T05:30:43;57385.50;;;-140.43;94.55
30714;BME280;17465;47.934;33.430;2023-12-07T05:33:15;57385.50;;;-140.43;94.55
30714;BME280;17465;47.934;33.430;2023-12-07T05:35:46;57429.98;;;-140.43;94.48
30714;BME280;17465;47.934;33.430;2023-12-07T05:38:16;57429.98;;;-140.43;94.48
30714;BME280;17465;47.934;33.430;2023-12-07T05:40:47;57424.69;;;-140.43;94.30
30714;BME280;17465;47.934;33.430;2023-12-07T05:43:18;57439.52;;;-140.43;94.15
30714;BME280;17465;47.934;33.430;2023-12-07T05:45:49;57403.51;;;-140.43;94.15
30714;BME280;17465;47.934;33.430;2023-12-07T05:48:20;57399.27;;;-140.43;94.39
30714;BME280;17465;47.934;33.430;2023-12-07T05:50:50;57399.27;;;-140.43;94.39
30714;BME280;17465;47.934;33.430;2023-12-07T05:53:21;57439.52;;;-140.43;94.48
30714;BME280;17465;47.934;33.430;2023-12-07T05:55:54;57439.52;;;-140.43;94.48
30714;BME280;17465;47.934;33.430;2023-12-07T05:58:23;57423.63;;;-140.43;94.66
30714;BME280;17465;47.934;33.430;2023-12-07T06:00:53;57423.63;;;-140.43;94.66
30714;BME280;17465;47.934;33.430;2023-12-07T06:03:23;57388.68;;;-140.43;95.10
30714;BME280;17465;47.934;33.430;2023-12-07T06:05:54;57446.93;;;-140.43;95.15
30714;BME280;17465;47.934;33.430;2023-12-07T06:08:24;57446.93;;;-140.43;95.15
30714;BME280;17465;47.934;33.430;2023-12-07T06:10:56;57439.52;;;-140.43;94.84
30714;BME280;17465;47.934;33.430;2023-12-07T06:13:26;57413.04;;;-140.43;94.89
30714;BME280;17465;47.934;33.430;2023-12-07T06:15:56;57433.16;;;-140.43;95.08
30714;BME280;17465;47.934;33.430;2023-12-07T06:18:27;57428.92;;;-140.43;94.62
30714;BME280;17465;47.934;33.430;2023-12-07T06:20:57;57411.98;;;-140.43;94.67
30714;BME280;17465;47.934;33.430;2023-12-07T06:23:28;57433.16;;;-140.43;94.90
30714;BME280;17465;47.934;33.430;2023-12-07T06:25:59;57433.16;;;-140.43;94.90
30714;BME280;17465;47.934;33.430;2023-12-07T06:28:29;57406.68;;;-140.43;94.26
30714;BME280;17465;47.934;33.430;2023-12-07T06:31:06;57446.93;;;-140.43;94.52
30714;BME280;17465;47.934;33.430;2023-12-07T06:33:37;57426.80;;;-140.43;94.48
30714;BME280;17465;47.934;33.430;2023-12-07T06:36:09;57426.80;;;-140.43;94.48
30714;BME280;17465;47.934;33.430;2023-12-07T06:38:39;57427.87;;;-140.43;94.36
30714;BME280;17465;47.934;33.430;2023-12-07T06:41:14;57423.63;;;-140.43;94.20
30714;BME280;17465;47.934;33.430;2023-12-07T06:43:50;57447.99;;;-140.43;94.42
30714;BME280;17465;47.934;33.430;2023-12-07T06:46:21;57413.04;;;-140.43;93.57
30714;BME280;17465;47.934;33.430;2023-12-07T06:48:51;57409.86;;;-140.43;94.91
30714;BME280;17465;47.934;33.430;2023-12-07T06:51:26;57423.63;;;-140.43;95.52
30714;BME280;17465;47.934;33.430;2023-12-07T06:53:56;57423.63;;;-140.43;95.52
30714;BME280;17465;47.934;33.430;2023-12-07T06:56:26;57420.45;;;-140.43;94.70
30714;BME280;17465;47.934;33.430;2023-12-07T06:58:57;57403.51;;;-140.43;94.30
30714;BME280;17465;47.934;33.430;2023-12-07T07:01:38;57411.98;;;-140.43;94.33
30714;BME280;17465;47.934;33.430;2023-12-07T07:04:10;57414.10;;;-140.43;93.77
30714;BME280;17465;47.934;33.430;2023-12-07T07:06:52;57414.10;;;-140.43;93.77
30714;BME280;17465;47.934;33.430;2023-12-07T07:09:24;57396.09;;;-140.43;93.08
30714;BME280;17465;47.934;33.430;2023-12-07T07:11:56;57409.86;;;-140.43;94.28
30714;BME280;17465;47.934;33.430;2023-12-07T07:14:30;57409.86;;;-140.43;94.28
30714;BME280;17465;47.934;33.430;2023-12-07T07:17:00;57415.16;;;-140.43;92.72
30714;BME280;17465;47.934;33.430;2023-12-07T07:19:34;57406.68;;;-140.43;91.98
30714;BME280;17465;47.934;33.430;2023-12-07T07:22:06;57406.68;;;-140.43;91.98
30714;BME280;17465;47.934;33.430;2023-12-07T07:24:36;57407.74;;;-140.43;93.06
30714;BME280;17465;47.934;33.430;2023-12-07T07:27:07;57421.51;;;-140.43;93.63
30714;BME280;17465;47.934;33.430;2023-12-07T07:29:43;57395.03;;;-140.43;94.09
30714;BME280;17465;47.934;33.430;2023-12-07T07:32:09;57403.51;;;-140.43;94.00
30714;BME280;17465;47.934;33.430;2023-12-07T07:34:40;57403.51;;;-140.43;94.00
30714;BME280;17465;47.934;33.430;2023-12-07T07:40:15;57422.57;;;-140.43;93.87
30714;BME280;17465;47.934;33.430;2023-12-07T07:42:49;57417.27;;;-140.43;94.02
30714;BME280;17465;47.934;33.430;2023-12-07T07:45:19;57408.80;;;-140.43;93.32
30714;BME280;17465;47.934;33.430;2023-12-07T07:47:50;57408.80;;;-140.43;91.74
30714;BME280;17465;47.934;33.430;2023-12-07T07:50:20;57379.15;;;-140.43;93.18
30714;BME280;17465;47.934;33.430;2023-12-07T07:52:56;57395.03;;;-140.43;94.15
30714;BME280;17465;47.934;33.430;2023-12-07T07:55:29;57395.03;;;-140.43;94.15
30714;BME280;17465;47.934;33.430;2023-12-07T07:58:03;57439.52;;;-140.43;94.20
30714;BME280;17465;47.934;33.430;2023-12-07T08:00:47;57415.16;;;-140.43;94.12
30714;BME280;17465;47.934;33.430;2023-12-07T08:03:37;57415.16;;;-140.43;94.33
30714;BME280;17465;47.934;33.430;2023-12-07T08:06:08;57421.51;;;-140.43;94.81
30714;BME280;17465;47.934;33.430;2023-12-07T08:08:42;57421.51;;;-140.43;94.81
30714;BME280;17465;47.934;33.430;2023-12-07T08:11:23;57416.21;;;-140.43;94.35
30714;BME280;17465;47.934;33.430;2023-12-07T08:13:50;57429.98;;;-140.43;93.56
30714;BME280;17465;47.934;33.430;2023-12-07T08:16:26;57401.39;;;-140.43;94.38
30714;BME280;17465;47.934;33.430;2023-12-07T08:19:00;57401.39;;;-140.43;94.38
30714;BME280;17465;47.934;33.430;2023-12-07T08:21:48;57409.86;;;-140.43;94.55
30714;BME280;17465;47.934;33.430;2023-12-07T08:27:26;57424.69;;;-140.43;94.63
30714;BME280;17465;47.934;33.430;2023-12-07T08:29:58;57404.57;;;-140.43;94.63
30714;BME280;17465;47.934;33.430;2023-12-07T08:32:29;57432.10;;;-140.43;94.56
30714;BME280;17465;47.934;33.430;2023-12-07T08:37:55;57405.62;;;-140.43;94.68
30714;BME280;17465;47.934;33.430;2023-12-07T08:40:27;57410.92;;;-140.43;94.32
30714;BME280;17465;47.934;33.430;2023-12-07T08:42:58;57410.92;;;-140.43;94.32
30714;BME280;17465;47.934;33.430;2023-12-07T08:45:29;57408.80;;;-140.43;94.50
30714;BME280;17465;47.934;33.430;2023-12-07T08:48:00;57411.98;;;-140.43;93.80
30714;BME280;17465;47.934;33.430;2023-12-07T08:50:31;57409.86;;;-140.43;93.64
30714;BME280;17465;47.934;33.430;2023-12-07T08:53:01;57396.09;;;-140.43;93.59
30714;BME280;17465;47.934;33.430;2023-12-07T08:55:35;57407.74;;;-140.43;93.45
30714;BME280;17465;47.934;33.430;2023-12-07T08:58:05;57418.33;;;-140.43;93.32
30714;BME280;17465;47.934;33.430;2023-12-07T09:00:35;57414.10;;;-140.43;93.59
30714;BME280;17465;47.934;33.430;2023-12-07T09:03:06;57410.92;;;-140.43;93.36
30714;BME280;17465;47.934;33.430;2023-12-07T09:05:39;57426.80;;;-140.43;93.50
30714;BME280;17465;47.934;33.430;2023-12-07T09:08:10;57421.51;;;-140.43;93.50
30714;BME280;17465;47.934;33.430;2023-12-07T09:10:41;57416.21;;;-140.43;93.77
30714;BME280;17465;47.934;33.430;2023-12-07T09:13:12;57422.57;;;-140.43;93.88
30714;BME280;17465;47.934;33.430;2023-12-07T09:15:43;57398.21;;;-140.43;93.47
30714;BME280;17465;47.934;33.430;2023-12-07T09:18:15;57398.21;;;-140.43;93.47
30714;BME280;17465;47.934;33.430;2023-12-07T09:20:49;57391.86;;;-140.43;93.92
30714;BME280;17465;47.934;33.430;2023-12-07T09:23:41;57392.91;;;-140.43;93.78
30714;BME280;17465;47.934;33.430;2023-12-07T09:26:13;57392.91;;;-140.43;93.78
30714;BME280;17465;47.934;33.430;2023-12-07T09:28:48;57433.16;;;-140.43;93.53
30714;BME280;17465;47.934;33.430;2023-12-07T09:31:33;57433.16;;;-140.43;93.53
30714;BME280;17465;47.934;33.430;2023-12-07T09:34:08;57418.33;;;-140.43;93.72
30714;BME280;17465;47.934;33.430;2023-12-07T09:36:43;57433.16;;;-140.43;93.88
30714;BME280;17465;47.934;33.430;2023-12-07T09:39:17;57413.04;;;-140.43;93.45
30714;BME280;17465;47.934;33.430;2023-12-07T09:41:48;57387.62;;;-140.43;93.83
30714;BME280;17465;47.934;33.430;2023-12-07T09:44:20;57387.62;;;-140.43;93.83
30714;BME280;17465;47.934;33.430;2023-12-07T09:47:08;57423.63;;;-140.43;93.85
30714;BME280;17465;47.934;33.430;2023-12-07T09:49:39;57424.69;;;-140.43;94.09
30714;BME280;17465;47.934;33.430;2023-12-07T09:52:30;57395.03;;;-140.43;93.88
30714;BME280;17465;47.934;33.430;2023-12-07T09:55:03;57420.45;;;-140.43;94.22
30714;BME280;17465;47.934;33.430;2023-12-07T09:57:36;57439.52;;;-140.43;94.46
30714;BME280;17465;47.934;33.430;2023-12-07T10:00:10;57439.52;;;-140.43;94.46
30714;BME280;17465;47.934;33.430;2023-12-07T10:02:42;57401.39;;;-140.43;93.40
30714;BME280;17465;47.934;33.430;2023-12-07T10:05:21;57419.39;;;-140.43;93.21
30714;BME280;17465;47.934;33.430;2023-12-07T10:08:00;57418.33;;;-140.43;93.53
30714;BME280;17465;47.934;33.430;2023-12-07T10:10:49;57449.05;;;-140.43;93.50
30714;BME280;17465;47.934;33.430;2023-12-07T10:13:24;57363.26;;;-140.43;93.40
30714;BME280;17465;47.934;33.430;2023-12-07T10:16:10;57407.74;;;-140.43;93.38
30714;BME280;17465;47.934;33.430;2023-12-07T10:18:41;57356.91;;;-140.43;93.67
30714;BME280;17465;47.934;33.430;2023-12-07T10:21:15;57433.16;;;-140.43;93.95
30714;BME280;17465;47.934;33.430;2023-12-07T10:23:46;57437.39;;;-140.43;93.83
30714;BME280;17465;47.934;33.430;2023-12-07T10:26:27;57406.68;;;-140.43;93.71
30714;BME280;17465;47.934;33.430;2023-12-07T10:29:29;57381.27;;;-140.43;94.05
30714;BME280;17465;47.934;33.430;2023-12-07T10:32:03;57417.27;;;-140.43;93.98
30714;BME280;17465;47.934;33.430;2023-12-07T10:34:37;57405.62;;;-140.43;94.26
30714;BME280;17465;47.934;33.430;2023-12-07T10:37:08;57400.33;;;-140.43;95.28
30714;BME280;17465;47.934;33.430;2023-12-07T10:39:39;57393.98;;;-140.43;94.45
30714;BME280;17465;47.934;33.430;2023-12-07T10:42:10;57405.62;;;-140.43;94.20
30714;BME280;17465;47.934;33.430;2023-12-07T10:44:42;57405.62;;;-140.43;94.56
30714;BME280;17465;47.934;33.430;2023-12-07T10:47:18;57395.03;;;-140.43;94.70
30714;BME280;17465;47.934;33.430;2023-12-07T10:49:52;57411.98;;;-140.43;94.31
30714;BME280;17465;47.934;33.430;2023-12-07T10:52:25;57411.98;;;-140.43;94.31
30714;BME280;17465;47.934;33.430;2023-12-07T10:57:41;57396.09;;;-140.43;94.73
30714;BME280;17465;47.934;33.430;2023-12-07T11:00:13;57424.69;;;-140.43;94.93
30714;BME280;17465;47.934;33.430;2023-12-07T11:02:44;57407.74;;;-140.43;94.67
30714;BME280;17465;47.934;33.430;2023-12-07T11:05:19;57407.74;;;-140.43;94.67
30714;BME280;17465;47.934;33.430;2023-12-07T11:08:11;57418.33;;;-140.43;94.93
30714;BME280;17465;47.934;33.430;2023-12-07T11:11:10;57418.33;;;-140.43;94.93
30714;BME280;17465;47.934;33.430;2023-12-07T11:13:44;57380.21;;;-140.43;94.18
30714;BME280;17465;47.934;33.430;2023-12-07T11:16:13;57380.21;;;-140.43;94.18
30714;BME280;17465;47.934;33.430;2023-12-07T11:18:43;57406.68;;;-140.43;94.02
30714;BME280;17465;47.934;33.430;2023-12-07T11:21:17;57390.80;;;-140.43;94.13
30714;BME280;17465;47.934;33.430;2023-12-07T11:23:47;57421.51;;;-140.43;94.08
30714;BME280;17465;47.934;33.430;2023-12-07T11:26:22;57421.51;;;-140.43;94.08
30714;BME280;17465;47.934;33.430;2023-12-07T11:28:55;57416.21;;;-140.43;94.05
30714;BME280;17465;47.934;33.430;2023-12-07T11:34:35;57389.74;;;-140.43;94.33
30714;BME280;17465;47.934;33.430;2023-12-07T11:37:07;57398.21;;;-140.43;94.15
30714;BME280;17465;47.934;33.430;2023-12-07T11:39:40;57398.21;;;-140.43;94.15
30714;BME280;17465;47.934;33.430;2023-12-07T11:42:14;57416.21;;;-140.43;94.33
30714;BME280;17465;47.934;33.430;2023-12-07T11:47:35;57396.09;;;-140.43;93.71
30714;BME280;17465;47.934;33.430;2023-12-07T11:50:07;57381.27;;;-140.43;93.82
30714;BME280;17465;47.934;33.430;2023-12-07T11:52:38;57420.45;;;-140.43;93.80
30714;BME280;17465;47.934;33.430;2023-12-07T11:55:08;57410.92;;;-140.43;93.80
30714;BME280;17465;47.934;33.430;2023-12-07T11:57:40;57392.91;;;-140.43;93.45
30714;BME280;17465;47.934;33.430;2023-12-07T13:06:20;56609.29;;;-140.43;95.11
30714;BME280;17465;47.934;33.430;2023-12-07T13:08:53;57362.20;;;-140.43;93.83
30714;BME280;17465;47.934;33.430;2023-12-07T14:33:24;57401.39;;;-140.43;97.12
30714;BME280;17465;47.934;33.430;2023-12-07T14:35:54;57409.86;;;-140.43;96.40
30714;BME280;17465;47.934;33.430;2023-12-07T14:38:25;57424.69;;;-140.43;96.95
30714;BME280;17465;47.934;33.430;2023-12-07T14:40:56;57413.04;;;-140.43;97.23
30714;BME280;17465;47.934;33.430;2023-12-07T14:43:26;57415.16;;;-140.43;96.53
30714;BME280;17465;47.934;33.430;2023-12-07T14:45:57;57421.51;;;-140.43;95.89
30714;BME280;17465;47.934;33.430;2023-12-07T14:48:28;57421.51;;;-140.43;95.89
30714;BME280;17465;47.934;33.430;2023-12-07T14:50:59;57404.57;;;-140.43;95.58
30714;BME280;17465;47.934;33.430;2023-12-07T14:53:31;57410.92;;;-140.43;95.28
30714;BME280;17465;47.934;33.430;2023-12-07T14:56:02;57410.92;;;-140.43;95.28
30714;BME280;17465;47.934;33.430;2023-12-07T14:58:33;57432.10;;;-140.43;97.19
30714;BME280;17465;47.934;33.430;2023-12-07T15:01:04;57432.10;;;-140.43;97.19
30714;BME280;17465;47.934;33.430;2023-12-07T15:03:34;57429.98;;;-140.43;97.76
30714;BME280;17465;47.934;33.430;2023-12-07T15:06:05;57405.62;;;-140.43;96.76
30714;BME280;17465;47.934;33.430;2023-12-07T15:08:37;57405.62;;;-140.43;96.76
30714;BME280;17465;47.934;33.430;2023-12-07T15:11:08;57382.32;;;-140.43;97.43
30714;BME280;17465;47.934;33.430;2023-12-07T15:13:38;57432.10;;;-140.43;96.74
30714;BME280;17465;47.934;33.430;2023-12-07T15:16:09;57432.10;;;-140.43;96.74
30714;BME280;17465;47.934;33.430;2023-12-07T15:18:40;57421.51;;;-140.43;96.04
30714;BME280;17465;47.934;33.430;2023-12-07T15:21:17;57386.56;;;-140.43;95.90
30714;BME280;17465;47.934;33.430;2023-12-07T15:23:44;57383.38;;;-140.43;96.03
30714;BME280;17465;47.934;33.430;2023-12-07T15:26:16;57383.38;;;-140.43;96.03
30714;BME280;17465;47.934;33.430;2023-12-07T15:28:46;57401.39;;;-140.43;95.60
30714;BME280;17465;47.934;33.430;2023-12-07T15:31:16;57436.34;;;-140.43;95.78
30714;BME280;17465;47.934;33.430;2023-12-07T15:33:47;57436.34;;;-140.43;95.78
30714;BME280;17465;47.934;33.430;2023-12-07T15:36:18;57411.98;;;-140.43;95.33
30714;BME280;17465;47.934;33.430;2023-12-07T15:38:48;57380.21;;;-140.43;95.52
30714;BME280;17465;47.934;33.430;2023-12-07T15:43:53;57407.74;;;-140.43;95.22
30714;BME280;17465;47.934;33.430;2023-12-07T15:46:23;57415.16;;;-140.43;94.92
30714;BME280;17465;47.934;33.430;2023-12-07T15:48:54;57403.51;;;-140.43;94.87